createdAt,value
2019-02-11T00:00:50.712Z,40.50
2019-02-11T00:03:16.861Z,40.40
2019-02-11T00:05:43.006Z,40.30
2019-02-11T00:08:09.152Z,40.40
2019-02-11T00:10:35.312Z,40.50
2019-02-11T00:13:01.464Z,40.50
2019-02-11T00:15:27.611Z,40.30
2019-02-11T00:17:53.779Z,40.50
2019-02-11T00:20:19.927Z,40.40
2019-02-11T00:22:46.087Z,40.60
2019-02-11T00:25:12.429Z,40.70
2019-02-11T00:27:38.588Z,40.40
2019-02-11T00:30:04.734Z,40.60
2019-02-11T00:32:30.896Z,40.50
2019-02-11T00:34:57.813Z,40.50
2019-02-11T00:37:24.009Z,40.50
2019-02-11T00:39:50.152Z,40.70
2019-02-11T00:42:16.316Z,40.60
2019-02-11T00:44:42.478Z,40.80
2019-02-11T00:47:08.670Z,40.60
2019-02-11T00:49:35.590Z,40.90
2019-02-11T00:52:01.741Z,40.90
2019-02-11T00:54:27.913Z,40.90
2019-02-11T00:56:54.065Z,40.90
2019-02-11T00:59:21.042Z,40.90
2019-02-11T01:01:46.396Z,40.90
2019-02-11T01:04:12.546Z,40.90
2019-02-11T01:06:38.692Z,41.10
2019-02-11T01:09:04.849Z,41.00
2019-02-11T01:11:30.999Z,41.20
2019-02-11T01:13:57.148Z,41.20
2019-02-11T01:16:23.295Z,41.20
2019-02-11T01:18:49.432Z,41.20
2019-02-11T01:21:15.584Z,41.30
2019-02-11T01:23:41.756Z,41.40
2019-02-11T01:26:07.896Z,41.40
2019-02-11T01:28:34.065Z,41.40
2019-02-11T01:31:00.204Z,41.50
2019-02-11T01:33:26.361Z,41.50
2019-02-11T01:35:52.504Z,41.60
2019-02-11T01:38:18.655Z,41.60
2019-02-11T01:40:45.569Z,41.80
2019-02-11T01:43:11.723Z,41.80
2019-02-11T01:45:37.871Z,41.80
2019-02-11T01:48:04.017Z,41.80
2019-02-11T01:50:30.173Z,41.80
2019-02-11T01:52:56.316Z,41.80
2019-02-11T01:55:22.477Z,41.80
2019-02-11T01:57:48.624Z,41.90
2019-02-11T02:00:14.792Z,41.90
2019-02-11T02:02:40.947Z,41.90
2019-02-11T02:05:07.893Z,42.00
2019-02-11T02:07:34.037Z,42.00
2019-02-11T02:10:00.258Z,42.00
2019-02-11T02:12:26.400Z,42.10
2019-02-11T02:14:52.552Z,42.20
2019-02-11T02:17:18.707Z,42.10
2019-02-11T02:19:44.844Z,42.90
2019-02-11T02:22:11.020Z,42.20
2019-02-11T02:24:37.193Z,42.20
2019-02-11T02:27:03.492Z,42.30
2019-02-11T02:29:29.644Z,42.30
2019-02-11T02:31:55.815Z,42.30
2019-02-11T02:34:21.973Z,42.40
2019-02-11T02:36:48.138Z,42.40
2019-02-11T02:39:15.059Z,42.40
2019-02-11T02:41:41.226Z,42.40
2019-02-11T02:44:07.376Z,42.50
2019-02-11T02:46:33.545Z,42.50
2019-02-11T02:48:59.688Z,42.60
2019-02-11T02:51:26.669Z,42.50
2019-02-11T02:53:52.801Z,42.60
2019-02-11T02:56:18.969Z,42.50
2019-02-11T02:58:45.119Z,42.60
2019-02-11T03:01:11.275Z,42.50
2019-02-11T03:03:37.417Z,42.60
2019-02-11T03:06:03.565Z,42.60
2019-02-11T03:08:29.725Z,42.60
2019-02-11T03:10:55.892Z,42.70
2019-02-11T03:13:22.045Z,42.80
2019-02-11T03:15:48.202Z,42.70
2019-02-11T03:18:14.352Z,42.80
2019-02-11T03:20:40.502Z,42.80
2019-02-11T03:23:06.658Z,42.80
2019-02-11T03:25:32.808Z,42.80
2019-02-11T03:27:58.953Z,42.80
2019-02-11T03:30:25.870Z,42.80
2019-02-11T03:32:52.015Z,42.80
2019-02-11T03:35:18.156Z,42.80
2019-02-11T03:37:44.315Z,42.90
2019-02-11T03:40:10.464Z,42.90
2019-02-11T03:42:36.628Z,42.90
2019-02-11T03:45:02.776Z,42.80
2019-02-11T03:47:28.935Z,42.80
2019-02-11T03:49:56.218Z,42.80
2019-02-11T03:52:23.143Z,42.90
2019-02-11T03:54:49.459Z,42.90
2019-02-11T03:57:15.596Z,43.00
2019-02-11T03:59:41.767Z,43.00
2019-02-11T04:02:07.923Z,43.00
2019-02-11T04:04:34.098Z,43.00
2019-02-11T04:07:00.252Z,43.00
2019-02-11T04:09:26.417Z,43.10
2019-02-11T04:11:52.573Z,43.00
2019-02-11T04:14:24.593Z,43.10
2019-02-11T04:16:44.933Z,43.10
2019-02-11T04:19:11.254Z,43.10
2019-02-11T04:21:37.406Z,43.20
2019-02-11T04:24:03.570Z,43.10
2019-02-11T04:26:29.724Z,43.30
2019-02-11T04:28:55.896Z,43.30
2019-02-11T04:31:22.041Z,43.30
2019-02-11T04:33:48.190Z,43.20
2019-02-11T04:36:14.337Z,43.10
2019-02-11T04:38:40.489Z,43.20
2019-02-11T04:41:06.634Z,43.20
2019-02-11T04:43:32.792Z,43.20
2019-02-11T04:45:58.946Z,43.20
2019-02-11T04:48:25.094Z,43.20
2019-02-11T04:50:51.235Z,43.30
2019-02-11T04:53:17.392Z,43.20
2019-02-11T04:55:43.539Z,43.20
2019-02-11T04:58:09.704Z,43.30
2019-02-11T05:00:35.853Z,43.20
2019-02-11T05:03:01.996Z,43.30
2019-02-11T05:05:28.146Z,43.20
2019-02-11T05:07:54.293Z,43.20
2019-02-11T05:10:20.444Z,43.20
2019-02-11T05:12:46.597Z,43.10
2019-02-11T05:15:12.755Z,43.10
2019-02-11T05:17:38.900Z,43.10
2019-02-11T05:20:05.061Z,43.10
2019-02-11T05:22:31.210Z,43.10
2019-02-11T05:24:57.356Z,43.10
2019-02-11T05:27:23.506Z,43.20
2019-02-11T05:29:49.652Z,43.10
2019-02-11T05:32:15.807Z,43.10
2019-02-11T05:34:41.953Z,43.00
2019-02-11T05:37:08.121Z,43.00
2019-02-11T05:39:34.268Z,43.00
2019-02-11T05:42:00.420Z,43.10
2019-02-11T05:44:26.574Z,43.00
2019-02-11T05:46:52.734Z,43.00
2019-02-11T05:49:19.644Z,42.90
2019-02-11T05:51:45.809Z,42.90
2019-02-11T05:54:11.960Z,42.90
2019-02-11T05:56:38.130Z,42.90
2019-02-11T05:59:04.287Z,42.90
2019-02-11T06:01:31.213Z,43.00
2019-02-11T06:03:57.365Z,43.00
2019-02-11T06:06:23.531Z,42.80
2019-02-11T06:08:49.692Z,42.80
2019-02-11T06:11:15.861Z,42.80
2019-02-11T06:13:42.029Z,42.80
2019-02-11T06:16:08.221Z,42.80
2019-02-11T06:18:34.386Z,42.90
2019-02-11T06:21:00.537Z,42.80
2019-02-11T06:23:26.697Z,42.80
2019-02-11T06:25:52.859Z,42.80
2019-02-11T06:28:19.002Z,42.70
2019-02-11T06:30:45.158Z,42.80
2019-02-11T06:33:11.314Z,42.80
2019-02-11T06:35:41.096Z,43.50
2019-02-11T06:38:07.251Z,42.90
2019-02-11T06:40:33.400Z,42.80
2019-02-11T06:42:59.543Z,42.80
2019-02-11T06:45:25.688Z,42.90
2019-02-11T06:47:51.847Z,42.90
2019-02-11T06:50:18.000Z,42.80
2019-02-11T06:52:44.171Z,42.80
2019-02-11T06:55:10.320Z,42.90
2019-02-11T06:57:36.494Z,42.80
2019-02-11T07:00:02.642Z,42.90
2019-02-11T07:02:28.803Z,43.00
2019-02-11T07:04:54.953Z,43.00
2019-02-11T07:07:21.125Z,43.00
2019-02-11T07:09:47.264Z,43.00
2019-02-11T07:12:13.415Z,43.10
2019-02-11T07:14:39.571Z,43.00
2019-02-11T07:17:05.724Z,43.10
2019-02-11T07:19:31.876Z,43.10
2019-02-11T07:21:58.032Z,43.10
2019-02-11T07:24:24.194Z,43.10
2019-02-11T07:26:50.346Z,43.80
2019-02-11T07:29:16.523Z,43.80
2019-02-11T07:31:42.678Z,43.20
2019-02-11T07:34:08.862Z,43.30
2019-02-11T07:36:35.784Z,43.30
2019-02-11T07:39:01.945Z,43.30
2019-02-11T07:41:28.093Z,43.30
2019-02-11T07:43:54.251Z,43.20
2019-02-11T07:46:20.405Z,43.20
2019-02-11T07:48:47.339Z,43.20
2019-02-11T07:51:13.484Z,43.20
2019-02-11T07:53:39.649Z,43.10
2019-02-11T07:56:05.801Z,43.30
2019-02-11T07:58:31.973Z,43.30
2019-02-11T08:00:58.128Z,43.40
2019-02-11T08:03:24.276Z,43.40
2019-02-11T08:05:50.427Z,43.50
2019-02-11T08:08:16.577Z,43.50
2019-02-11T08:10:42.732Z,43.50
2019-02-11T08:13:08.884Z,43.50
2019-02-11T08:15:38.576Z,43.50
2019-02-11T08:18:01.226Z,43.50
2019-02-11T08:20:27.385Z,43.50
2019-02-11T08:22:53.537Z,43.50
2019-02-11T08:25:19.687Z,43.40
2019-02-11T08:27:45.840Z,43.40
2019-02-11T08:30:11.997Z,43.40
2019-02-11T08:32:38.152Z,43.50
2019-02-11T08:35:04.299Z,44.20
2019-02-11T08:37:30.451Z,43.50
2019-02-11T08:39:56.612Z,43.50
2019-02-11T08:42:23.525Z,43.50
2019-02-11T08:44:50.204Z,43.50
2019-02-11T08:47:16.373Z,43.50
2019-02-11T08:49:42.544Z,43.50
2019-02-11T08:52:08.729Z,43.40
2019-02-11T08:54:34.897Z,43.40
2019-02-11T08:57:01.048Z,43.40
2019-02-11T08:59:27.217Z,43.40
2019-02-11T09:01:53.372Z,44.10
2019-02-11T09:04:19.520Z,43.40
2019-02-11T09:06:45.674Z,44.10
2019-02-11T09:09:11.823Z,43.50
2019-02-11T09:11:37.970Z,43.50
2019-02-11T09:14:04.121Z,43.40
2019-02-11T09:16:30.663Z,43.40
2019-02-11T09:18:56.812Z,43.40
2019-02-11T09:21:22.960Z,43.50
2019-02-11T09:23:49.103Z,43.50
2019-02-11T09:26:15.272Z,43.50
2019-02-11T09:28:41.413Z,43.50
2019-02-11T09:31:07.580Z,43.40
2019-02-11T09:33:33.737Z,43.50
2019-02-11T09:35:59.898Z,43.40
2019-02-11T09:38:26.045Z,43.50
2019-02-11T09:40:52.216Z,43.40
2019-02-11T09:43:18.361Z,43.40
2019-02-11T09:45:44.524Z,43.50
2019-02-11T09:48:10.690Z,43.50
2019-02-11T09:50:36.873Z,43.60
2019-02-11T09:53:03.033Z,43.50
2019-02-11T09:55:29.180Z,43.60
2019-02-11T09:57:55.327Z,43.60
2019-02-11T10:00:21.476Z,43.70
2019-02-11T10:02:47.625Z,43.70
2019-02-11T10:05:13.768Z,43.70
2019-02-11T10:07:40.679Z,43.70
2019-02-11T10:10:06.820Z,43.70
2019-02-11T10:12:32.965Z,43.70
2019-02-11T10:14:59.121Z,43.70
2019-02-11T10:17:29.831Z,43.80
2019-02-11T10:19:52.239Z,43.70
2019-02-11T10:22:18.397Z,43.70
2019-02-11T10:24:44.540Z,43.70
2019-02-11T10:27:10.710Z,43.80
2019-02-11T10:29:36.865Z,43.70
2019-02-11T10:32:03.778Z,43.80
2019-02-11T10:34:29.937Z,43.80
2019-02-11T10:36:56.593Z,43.90
2019-02-11T10:39:22.743Z,43.90
2019-02-11T10:41:48.900Z,43.90
2019-02-11T10:44:15.053Z,44.00
2019-02-11T10:46:41.979Z,44.10
2019-02-11T10:49:08.126Z,44.10
2019-02-11T10:51:34.281Z,44.00
2019-02-11T10:54:00.425Z,44.10
2019-02-11T10:56:26.587Z,44.00
2019-02-11T10:58:52.749Z,44.00
2019-02-11T11:01:18.898Z,44.10
2019-02-11T11:03:45.056Z,44.10
2019-02-11T11:06:11.223Z,44.00
2019-02-11T11:08:37.384Z,44.20
2019-02-11T11:11:03.543Z,44.30
2019-02-11T11:13:29.713Z,44.30
2019-02-11T11:15:55.864Z,44.40
2019-02-11T11:18:22.042Z,44.50
2019-02-11T11:20:48.189Z,44.50
2019-02-11T11:23:15.152Z,44.40
2019-02-11T11:25:40.558Z,44.40
2019-02-11T11:28:06.717Z,44.40
2019-02-11T11:30:32.872Z,44.40
2019-02-11T11:32:59.013Z,44.50
2019-02-11T11:35:25.161Z,44.50
2019-02-11T11:37:51.306Z,44.60
2019-02-11T11:40:17.494Z,44.60
2019-02-11T11:42:44.392Z,44.50
2019-02-11T11:45:10.545Z,44.50
2019-02-11T11:47:36.704Z,44.50
2019-02-11T11:50:02.848Z,44.60
2019-02-11T11:52:29.733Z,44.60
2019-02-11T11:54:55.876Z,44.60
2019-02-11T11:57:22.023Z,44.60
2019-02-11T11:59:48.192Z,44.50
2019-02-11T12:02:15.888Z,44.60
2019-02-11T12:04:40.551Z,45.30
2019-02-11T12:07:06.753Z,44.70
2019-02-11T12:09:32.916Z,44.70
2019-02-11T12:11:59.075Z,44.80
2019-02-11T12:14:25.239Z,44.80
2019-02-11T12:16:57.357Z,44.90
2019-02-11T12:19:17.598Z,44.90
2019-02-11T12:21:43.756Z,44.80
2019-02-11T12:24:09.933Z,45.00
2019-02-11T12:26:36.095Z,44.80
2019-02-11T12:29:02.250Z,45.00
2019-02-11T12:31:28.425Z,45.00
2019-02-11T12:33:54.748Z,45.00
2019-02-11T12:36:20.926Z,45.10
2019-02-11T12:38:47.189Z,45.10
2019-02-11T12:41:13.364Z,45.10
2019-02-11T12:43:39.529Z,45.10
2019-02-11T12:46:05.923Z,45.20
2019-02-11T12:48:32.092Z,45.20
2019-02-11T12:50:58.259Z,45.10
2019-02-11T12:53:24.444Z,45.10
2019-02-11T12:55:50.768Z,45.00
2019-02-11T12:58:16.924Z,45.10
2019-02-11T13:00:43.097Z,45.00
2019-02-11T13:03:09.274Z,45.00
2019-02-11T13:05:45.252Z,45.10
2019-02-11T13:08:01.874Z,45.00
2019-02-11T13:10:30.062Z,45.00
2019-02-11T13:12:56.068Z,45.00
2019-02-11T13:15:52.646Z,45.00
2019-02-11T13:17:48.486Z,45.00
2019-02-11T13:20:14.601Z,45.00
2019-02-11T13:22:40.919Z,45.00
2019-02-11T13:25:08.372Z,45.00
2019-02-11T13:27:33.287Z,45.00
2019-02-11T13:29:59.449Z,45.00
2019-02-11T13:32:25.605Z,45.00
2019-02-11T13:34:51.766Z,45.00
2019-02-11T13:37:18.106Z,45.00
2019-02-11T13:39:44.426Z,45.00
2019-02-11T13:42:10.613Z,45.00
2019-02-11T13:44:36.773Z,45.00
2019-02-11T13:47:02.948Z,45.00
2019-02-11T13:49:29.108Z,45.00
2019-02-11T13:51:55.428Z,44.90
2019-02-11T13:54:21.585Z,44.90
2019-02-11T13:56:47.757Z,44.90
2019-02-11T13:59:13.917Z,45.00
2019-02-11T14:01:40.067Z,44.80
2019-02-11T14:04:06.225Z,44.80
2019-02-11T14:06:32.389Z,44.80
2019-02-11T14:08:58.545Z,44.90
2019-02-11T14:11:24.709Z,44.90
2019-02-11T14:14:02.212Z,44.80
2019-02-11T14:16:17.243Z,44.70
2019-02-11T14:18:43.572Z,44.80
2019-02-11T14:21:09.731Z,44.60
2019-02-11T14:23:35.917Z,44.70
2019-02-11T14:26:02.231Z,45.30
2019-02-11T14:31:00.755Z,44.50
2019-02-11T14:33:26.942Z,44.60
2019-02-11T14:35:53.146Z,44.60
2019-02-11T14:38:19.315Z,44.70
2019-02-11T14:40:45.483Z,44.60
2019-02-11T14:43:11.638Z,44.60
2019-02-11T14:45:37.815Z,44.50
2019-02-11T14:48:04.130Z,44.50
2019-02-11T14:50:30.436Z,44.50
2019-02-11T14:52:56.592Z,44.60
2019-02-11T14:55:22.742Z,44.50
2019-02-11T14:57:48.907Z,44.50
2019-02-11T15:00:15.065Z,44.50
2019-02-11T15:02:41.972Z,44.50
2019-02-11T15:05:08.117Z,44.50
2019-02-11T15:07:34.264Z,44.40
2019-02-11T15:10:00.437Z,44.40
2019-02-11T15:12:26.576Z,44.40
2019-02-11T15:14:52.740Z,44.50
2019-02-11T15:17:18.888Z,44.40
2019-02-11T15:19:45.060Z,44.50
2019-02-11T15:22:11.212Z,44.40
2019-02-11T15:24:37.385Z,44.40
2019-02-11T15:27:03.544Z,44.40
2019-02-11T15:29:29.740Z,44.40
2019-02-11T15:31:55.888Z,44.40
2019-02-11T15:34:22.033Z,44.40
2019-02-11T15:36:48.193Z,44.40
2019-02-11T15:39:14.344Z,44.40
2019-02-11T15:41:40.529Z,44.40
2019-02-11T15:44:06.720Z,44.30
2019-02-11T15:46:32.867Z,44.30
2019-02-11T15:48:59.016Z,44.30
2019-02-11T15:51:25.162Z,44.30
2019-02-11T15:53:51.315Z,44.30
2019-02-11T15:56:17.657Z,44.30
2019-02-11T15:58:43.810Z,44.10
2019-02-11T16:01:09.985Z,44.00
2019-02-11T16:03:36.138Z,44.00
2019-02-11T16:06:10.193Z,43.70
2019-02-11T16:08:29.265Z,43.70
2019-02-11T16:11:01.202Z,43.40
2019-02-11T16:13:21.628Z,43.40
2019-02-11T16:15:47.793Z,43.30
2019-02-11T16:18:13.953Z,43.20
2019-02-11T16:20:40.116Z,43.10
2019-02-11T16:23:06.274Z,43.20
2019-02-11T16:25:32.577Z,43.30
2019-02-11T16:27:58.736Z,43.00
2019-02-11T16:30:24.884Z,43.00
2019-02-11T16:32:51.030Z,43.10
2019-02-11T16:35:17.192Z,42.90
2019-02-11T16:37:43.340Z,43.00
2019-02-11T16:40:10.268Z,42.90
2019-02-11T16:42:36.422Z,42.90
2019-02-11T16:45:02.589Z,42.80
2019-02-11T16:47:28.761Z,42.80
2019-02-11T16:49:54.962Z,42.80
2019-02-11T16:52:21.135Z,42.70
2019-02-11T16:54:47.277Z,42.70
2019-02-11T16:57:13.447Z,42.60
2019-02-11T16:59:39.597Z,42.60
2019-02-11T17:02:05.768Z,42.40
2019-02-11T17:04:31.929Z,42.50
2019-02-11T17:06:58.111Z,42.30
2019-02-11T17:09:24.269Z,42.20
2019-02-11T17:11:50.421Z,42.40
2019-02-11T17:14:16.579Z,42.30
2019-02-11T17:16:42.727Z,42.40
2019-02-11T17:19:09.684Z,42.20
2019-02-11T17:21:35.061Z,42.00
2019-02-11T17:24:01.217Z,42.20
2019-02-11T17:26:27.372Z,42.30
2019-02-11T17:28:53.513Z,42.40
2019-02-11T17:31:19.673Z,42.20
2019-02-11T17:33:46.019Z,42.30
2019-02-11T17:36:12.173Z,42.30
2019-02-11T17:38:39.094Z,42.10
2019-02-11T17:41:05.240Z,42.10
2019-02-11T17:43:32.153Z,42.10
2019-02-11T17:45:58.310Z,42.10
2019-02-11T17:48:24.484Z,42.10
2019-02-11T17:50:50.629Z,42.20
2019-02-11T17:53:16.877Z,42.20
2019-02-11T17:55:43.029Z,42.20
2019-02-11T17:58:09.193Z,42.10
2019-02-11T18:00:35.349Z,42.70
2019-02-11T18:03:01.499Z,42.10
2019-02-11T18:05:27.654Z,42.20
2019-02-11T18:07:53.803Z,42.20
2019-02-11T18:10:19.954Z,42.20
2019-02-11T18:12:46.099Z,42.10
2019-02-11T18:15:12.246Z,42.20
2019-02-11T18:17:38.414Z,42.20
2019-02-11T18:20:04.572Z,42.10
2019-02-11T18:22:30.725Z,42.10
2019-02-11T18:24:56.937Z,42.10
2019-02-11T18:27:23.080Z,42.00
2019-02-11T18:29:49.228Z,42.10
2019-02-11T18:32:15.378Z,42.20
2019-02-11T18:34:41.536Z,42.20
2019-02-11T18:37:07.764Z,42.10
2019-02-11T18:39:47.644Z,42.10
2019-02-11T18:42:13.800Z,42.10
2019-02-11T18:44:39.968Z,42.10
2019-02-11T18:47:06.113Z,42.10
2019-02-11T18:49:34.576Z,42.10
2019-02-11T18:51:58.476Z,42.00
2019-02-11T18:54:24.684Z,42.00
2019-02-11T18:56:50.833Z,42.10
2019-02-11T18:59:24.449Z,42.00
2019-02-11T19:01:43.177Z,42.70
2019-02-11T19:04:09.332Z,42.00
2019-02-11T19:06:35.480Z,42.10
2019-02-11T19:09:02.911Z,42.10
2019-02-11T19:11:29.056Z,42.10
2019-02-11T19:13:55.207Z,41.90
2019-02-11T19:16:21.364Z,41.90
2019-02-11T19:18:47.536Z,41.90
2019-02-11T19:21:13.684Z,41.80
2019-02-11T19:23:40.605Z,41.80
2019-02-11T19:26:06.766Z,41.80
2019-02-11T19:28:32.916Z,41.60
2019-02-11T19:30:59.077Z,41.70
2019-02-11T19:33:25.240Z,41.70
2019-02-11T19:35:51.392Z,42.00
2019-02-11T19:38:17.544Z,41.70
2019-02-11T19:40:43.704Z,41.70
2019-02-11T19:43:09.849Z,41.70
2019-02-11T19:45:36.004Z,41.60
2019-02-11T19:48:02.155Z,41.70
2019-02-11T19:50:28.309Z,41.60
2019-02-11T19:52:54.461Z,41.60
2019-02-11T19:55:20.612Z,41.50
2019-02-11T19:57:46.955Z,41.60
2019-02-11T20:00:12.990Z,41.60
2019-02-11T20:02:39.147Z,41.40
2019-02-11T20:05:05.290Z,41.40
2019-02-11T20:07:31.445Z,41.50
2019-02-11T20:09:57.592Z,41.50
2019-02-11T20:12:23.744Z,41.40
2019-02-11T20:14:49.904Z,41.50
2019-02-11T20:17:16.061Z,41.20
2019-02-11T20:19:42.206Z,41.30
2019-02-11T20:22:08.380Z,41.10
2019-02-11T20:24:34.531Z,41.20
2019-02-11T20:27:00.696Z,41.00
2019-02-11T20:29:26.840Z,41.20
2019-02-11T20:31:53.035Z,41.10
2019-02-11T20:34:19.338Z,41.00
2019-02-11T20:36:45.489Z,41.10
2019-02-11T20:39:11.637Z,41.10
2019-02-11T20:41:37.780Z,41.00
2019-02-11T20:44:03.930Z,40.90
2019-02-11T20:46:30.105Z,40.90
2019-02-11T20:48:56.268Z,41.10
2019-02-11T20:51:22.417Z,40.90
2019-02-11T20:53:48.572Z,40.90
2019-02-11T20:56:14.723Z,40.90
2019-02-11T20:58:40.946Z,40.90
2019-02-11T21:01:07.075Z,41.00
2019-02-11T21:03:33.220Z,40.90
2019-02-11T21:05:59.355Z,40.80
2019-02-11T21:08:25.508Z,40.90
2019-02-11T21:10:51.648Z,40.80
2019-02-11T21:13:17.830Z,41.00
2019-02-11T21:15:43.984Z,40.90
2019-02-11T21:18:10.134Z,40.90
2019-02-11T21:20:36.276Z,41.00
2019-02-11T21:23:02.432Z,40.80
2019-02-11T21:25:28.580Z,40.60
2019-02-11T21:27:54.734Z,40.80
2019-02-11T21:30:20.895Z,40.80
2019-02-11T21:32:47.822Z,40.90
2019-02-11T21:35:13.978Z,40.90
2019-02-11T21:37:40.137Z,40.80
2019-02-11T21:40:06.279Z,40.90
2019-02-11T21:42:32.417Z,40.90
2019-02-11T21:44:58.577Z,40.80
2019-02-11T21:47:24.720Z,40.90
2019-02-11T21:49:50.888Z,40.80
2019-02-11T21:52:17.049Z,40.80
2019-02-11T21:54:43.225Z,40.90
2019-02-11T21:57:09.378Z,40.90
2019-02-11T21:59:35.531Z,40.80
2019-02-11T22:02:01.684Z,40.90
2019-02-11T22:04:27.837Z,40.90
2019-02-11T22:06:53.992Z,40.90
2019-02-11T22:09:20.135Z,40.80
2019-02-11T22:11:47.053Z,40.80
2019-02-11T22:14:13.204Z,40.80
2019-02-11T22:16:39.367Z,40.90
2019-02-11T22:19:05.520Z,40.70
2019-02-11T22:21:31.668Z,40.70
2019-02-11T22:23:57.819Z,40.70
2019-02-11T22:26:23.960Z,40.70
2019-02-11T22:28:50.121Z,40.60
2019-02-11T22:31:16.261Z,40.70
2019-02-11T22:33:42.413Z,40.70
2019-02-11T22:36:08.571Z,40.50
2019-02-11T22:38:34.725Z,40.70
2019-02-11T22:41:00.878Z,40.70
2019-02-11T22:43:27.029Z,40.60
2019-02-11T22:45:53.194Z,40.60
2019-02-11T22:48:19.348Z,40.50
2019-02-11T22:50:45.528Z,40.70
2019-02-11T22:53:11.673Z,40.80
2019-02-11T22:55:37.837Z,40.80
2019-02-11T22:58:03.984Z,40.70
2019-02-11T23:00:30.133Z,40.60
2019-02-11T23:02:57.052Z,40.60
2019-02-11T23:05:23.209Z,40.60
2019-02-11T23:07:49.374Z,40.80
2019-02-11T23:10:15.525Z,40.70
2019-02-11T23:12:41.684Z,40.60
2019-02-11T23:15:08.605Z,40.70
2019-02-11T23:17:34.757Z,40.70
2019-02-11T23:20:00.907Z,40.70
2019-02-11T23:22:27.060Z,40.60
2019-02-11T23:24:53.216Z,40.60
2019-02-11T23:27:19.367Z,40.60
2019-02-11T23:29:45.521Z,40.60
2019-02-11T23:32:11.696Z,40.70
2019-02-11T23:34:37.849Z,40.70
2019-02-11T23:37:04.047Z,40.70
2019-02-11T23:39:30.207Z,40.60
2019-02-11T23:41:56.354Z,40.70
2019-02-11T23:44:22.503Z,40.60
2019-02-11T23:46:48.657Z,40.60
2019-02-11T23:49:14.805Z,40.70
2019-02-11T23:51:41.144Z,40.60
2019-02-11T23:54:07.152Z,40.60
2019-02-11T23:56:34.065Z,40.70
2019-02-11T23:59:00.216Z,40.70
